Time;durP1;ratioP1;P1;durP2;ratioP2;P2;SDS_P1;SDS_P2;PMS_P1;PMS_P2;Temp;Humidity;BMP_temperature;BMP_pressure;BME280_temperature;BME280_humidity;BME280_pressure;Samples;Min_cycle;Max_cycle;Signal;HPM_P1;HPM_P2
2023/01/08 00:00:45;;;;;;;0.30;0.30;;;17.30;68.50;;;;;;5079036;28;20056;-18
2023/01/08 00:03:11;;;;;;;0.65;0.40;;;17.40;68.40;;;;;;5078575;28;20106;-11
2023/01/08 00:05:37;;;;;;;0.22;0.22;;;17.40;68.40;;;;;;5073545;28;20048;-14
2023/01/08 00:08:03;;;;;;;0.50;0.40;;;17.40;68.40;;;;;;5079454;28;20044;-11
2023/01/08 00:10:28;;;;;;;0.50;0.30;;;17.40;68.40;;;;;;5075227;28;20492;-17
2023/01/08 00:12:54;;;;;;;0.28;0.20;;;17.30;68.60;;;;;;5070357;28;20036;-11
2023/01/08 00:15:20;;;;;;;0.30;0.30;;;17.40;68.50;;;;;;5077079;28;20494;-11
2023/01/08 00:17:46;;;;;;;0.95;0.30;;;17.30;68.60;;;;;;5070289;28;20043;-11
2023/01/08 00:20:11;;;;;;;0.32;0.30;;;17.30;68.40;;;;;;5079698;28;20044;-30
2023/01/08 00:22:37;;;;;;;0.30;0.22;;;17.30;68.40;;;;;;5070242;28;20044;-26
2023/01/08 00:25:03;;;;;;;0.68;0.30;;;17.30;68.50;;;;;;5071251;28;20055;-18
2023/01/08 00:27:29;;;;;;;0.40;0.32;;;17.40;68.40;;;;;;5073319;28;20029;-15
2023/01/08 00:29:54;;;;;;;1.63;0.30;;;17.40;68.30;;;;;;5072325;28;20063;-24
2023/01/08 00:32:20;;;;;;;0.40;0.30;;;17.40;68.20;;;;;;5074852;28;20121;-20
2023/01/08 00:34:47;;;;;;;1.25;0.30;;;17.30;68.40;;;;;;5076726;28;20053;-12
2023/01/08 00:37:13;;;;;;;0.35;0.25;;;17.40;68.40;;;;;;5077537;28;20453;-26
2023/01/08 00:39:38;;;;;;;0.63;0.40;;;17.40;68.20;;;;;;5078908;28;20040;-20
2023/01/08 00:42:04;;;;;;;0.20;0.20;;;17.30;68.30;;;;;;5077242;28;20024;-21
2023/01/08 00:44:30;;;;;;;0.30;0.25;;;17.30;68.40;;;;;;5066400;28;20057;-10
2023/01/08 00:46:55;;;;;;;0.35;0.28;;;17.40;68.30;;;;;;5052149;28;20116;-15
2023/01/08 00:49:21;;;;;;;0.30;0.30;;;17.40;68.30;;;;;;5050918;28;20040;-13
2023/01/08 00:51:46;;;;;;;0.43;0.25;;;17.40;68.20;;;;;;5050157;28;20041;-37
2023/01/08 00:54:12;;;;;;;0.40;0.30;;;17.40;68.40;;;;;;5050471;28;20506;-12
2023/01/08 00:56:37;;;;;;;0.30;0.25;;;17.30;68.50;;;;;;5050016;28;20421;-31
2023/01/08 00:59:03;;;;;;;0.50;0.50;;;17.30;68.50;;;;;;5051372;28;20043;-13
2023/01/08 01:01:29;;;;;;;0.45;0.30;;;17.30;68.30;;;;;;5050484;28;20059;-11
2023/01/08 01:03:54;;;;;;;0.68;0.50;;;17.30;68.40;;;;;;5049860;28;20035;-10
2023/01/08 01:06:20;;;;;;;0.52;0.30;;;17.30;68.50;;;;;;5050557;28;20033;-10
2023/01/08 01:08:45;;;;;;;0.30;0.30;;;17.30;68.50;;;;;;5049083;28;20053;-11
2023/01/08 01:11:18;;;;;;;0.30;0.20;;;17.30;68.20;;;;;;5049142;28;20052;-10
2023/01/08 01:13:44;;;;;;;0.30;0.28;;;17.40;68.40;;;;;;5046784;28;20133;-10
2023/01/08 01:16:09;;;;;;;0.30;0.30;;;17.40;68.40;;;;;;5049781;28;20128;-10
2023/01/08 01:18:35;;;;;;;0.30;0.30;;;17.40;68.30;;;;;;5051564;28;20494;-11
2023/01/08 01:21:00;;;;;;;0.20;0.20;;;17.40;68.00;;;;;;5049540;28;20049;-16
2023/01/08 01:23:26;;;;;;;0.30;0.30;;;17.40;68.20;;;;;;5051684;28;20071;-11
2023/01/08 01:25:53;;;;;;;0.40;0.30;;;17.40;68.20;;;;;;5053725;28;20048;-11
2023/01/08 01:28:18;;;;;;;0.30;0.20;;;17.30;68.20;;;;;;5050088;28;20045;-20
2023/01/08 01:30:44;;;;;;;0.85;0.38;;;17.30;68.30;;;;;;5049032;28;20041;-10
2023/01/08 01:33:10;;;;;;;0.47;0.22;;;17.40;68.20;;;;;;5051048;28;20494;-10
2023/01/08 01:35:35;;;;;;;0.30;0.30;;;17.30;68.30;;;;;;5047582;28;20116;-11
2023/01/08 01:38:01;;;;;;;0.32;0.30;;;17.30;68.10;;;;;;5047560;28;20041;-14
2023/01/08 01:40:26;;;;;;;0.30;0.28;;;17.30;68.20;;;;;;5050346;28;20076;-10
2023/01/08 01:42:52;;;;;;;0.30;0.28;;;17.30;68.50;;;;;;5049301;28;20048;-10
2023/01/08 01:45:22;;;;;;;0.38;0.20;;;17.30;68.40;;;;;;5068070;28;20036;-12
2023/01/08 01:48:02;;;;;;;0.35;0.20;;;17.30;69.20;;;;;;5075111;28;20048;-11
2023/01/08 01:50:40;;;;;;;0.40;0.38;;;17.30;68.40;;;;;;5059012;28;20049;-10
2023/01/08 01:53:10;;;;;;;0.30;0.30;;;17.30;68.30;;;;;;5057465;28;20044;-14
2023/01/08 01:55:37;;;;;;;0.25;0.20;;;17.40;68.10;;;;;;5080794;28;20037;-10
2023/01/08 01:58:22;;;;;;;0.20;0.20;;;17.30;68.10;;;;;;5059144;28;20055;-10
2023/01/08 02:00:47;;;;;;;0.40;0.28;;;17.30;68.00;;;;;;5073280;28;20494;-10
2023/01/08 02:03:13;;;;;;;0.32;0.22;;;17.30;68.20;;;;;;5077342;28;20635;-14
2023/01/08 02:05:57;;;;;;;0.65;0.40;;;17.30;68.20;;;;;;5074901;28;20143;-10
2023/01/08 02:08:31;;;;;;;0.43;0.30;;;17.40;68.10;;;;;;5078622;28;20048;-21
2023/01/08 02:11:08;;;;;;;;;;;17.30;68.30;;;;;;5073535;28;20501;-15
2023/01/08 02:13:36;;;;;;;0.20;0.20;;;17.20;68.40;;;;;;5076778;28;19917;-14
2023/01/08 02:16:28;;;;;;;0.47;0.30;;;17.20;68.40;;;;;;5074538;28;20045;-10
2023/01/08 02:18:59;;;;;;;0.52;0.30;;;17.30;68.20;;;;;;5078140;28;20048;-11
2023/01/08 02:21:44;;;;;;;0.20;0.20;;;17.30;68.20;;;;;;5056617;28;20501;-23
2023/01/08 02:24:16;;;;;;;;;;;17.30;68.30;;;;;;5067684;28;20152;-11
2023/01/08 02:26:41;;;;;;;0.25;0.20;;;17.30;68.10;;;;;;5056779;28;19919;-10
2023/01/08 02:29:13;;;;;;;0.20;0.20;;;17.30;68.10;;;;;;5075194;28;20310;-10
2023/01/08 02:31:40;;;;;;;0.17;0.15;;;17.20;68.30;;;;;;5058721;28;20509;-17
2023/01/08 02:34:05;;;;;;;0.30;0.28;;;17.30;68.20;;;;;;5073139;28;20719;-16
2023/01/08 02:36:42;;;;;;;0.20;0.20;;;17.30;68.10;;;;;;5080420;28;20131;-17
2023/01/08 02:39:10;;;;;;;0.20;0.20;;;17.30;68.20;;;;;;5074179;28;20032;-11
2023/01/08 02:42:01;;;;;;;0.10;0.10;;;17.30;68.20;;;;;;5061238;28;20126;-11
2023/01/08 02:45:00;;;;;;;0.55;0.30;;;17.30;68.20;;;;;;5052409;28;20036;-10
2023/01/08 02:47:38;;;;;;;0.30;0.20;;;17.20;68.20;;;;;;5053365;28;20033;-10
2023/01/08 02:50:15;;;;;;;0.45;0.30;;;17.20;68.30;;;;;;5056615;28;20144;-21
2023/01/08 02:53:02;;;;;;;0.10;0.10;;;17.30;68.00;;;;;;5060400;28;20443;-10
2023/01/08 02:55:28;;;;;;;0.10;0.10;;;17.30;67.90;;;;;;5036510;28;20040;-11
2023/01/08 02:57:54;;;;;;;0.20;0.20;;;17.30;68.00;;;;;;5018735;28;20040;-10
2023/01/08 03:00:19;;;;;;;0.20;0.20;;;17.20;68.30;;;;;;5054630;28;20578;-10
2023/01/08 03:02:45;;;;;;;0.30;0.20;;;17.20;68.20;;;;;;5038060;28;20374;-13
2023/01/08 03:05:20;;;;;;;0.32;0.20;;;17.20;68.20;;;;;;5039031;28;20064;-11
2023/01/08 03:07:45;;;;;;;0.20;0.20;;;17.30;68.10;;;;;;5036152;28;20072;-10
2023/01/08 03:10:11;;;;;;;0.20;0.20;;;17.20;68.20;;;;;;5045955;28;20068;-13
2023/01/08 03:12:40;;;;;;;0.10;0.10;;;17.20;68.20;;;;;;5035286;28;20040;-20
2023/01/08 03:15:07;;;;;;;0.17;0.17;;;17.20;68.20;;;;;;5055577;28;20490;-22
2023/01/08 03:17:36;;;;;;;0.20;0.20;;;17.30;67.90;;;;;;5054666;28;20055;-10
2023/01/08 03:20:13;;;;;;;0.90;0.15;;;17.20;68.10;;;;;;5036276;28;20067;-10
2023/01/08 03:22:39;;;;;;;0.25;0.20;;;17.20;68.20;;;;;;5029155;28;20461;-11
2023/01/08 03:25:05;;;;;;;0.10;0.10;;;17.30;68.00;;;;;;5057902;28;20036;-10
2023/01/08 03:27:32;;;;;;;0.20;0.20;;;17.20;68.00;;;;;;5050786;28;20589;-10
2023/01/08 03:29:58;;;;;;;0.10;0.10;;;17.20;68.20;;;;;;5027628;28;20127;-10
2023/01/08 03:32:23;;;;;;;0.10;0.10;;;17.20;68.10;;;;;;5031070;28;20116;-10
2023/01/08 03:34:49;;;;;;;0.10;0.10;;;17.20;68.00;;;;;;5028416;28;20049;-10
2023/01/08 03:37:16;;;;;;;0.20;0.10;;;17.30;67.90;;;;;;5046546;28;20108;-10
2023/01/08 03:39:48;;;;;;;0.40;0.28;;;17.30;67.70;;;;;;5045791;28;20037;-11
2023/01/08 03:42:14;;;;;;;0.30;0.20;;;17.20;68.00;;;;;;5028716;28;20414;-10
2023/01/08 03:44:39;;;;;;;0.20;0.20;;;17.20;68.00;;;;;;5055730;28;20041;-10
2023/01/08 03:47:05;;;;;;;0.30;0.30;;;17.20;68.10;;;;;;5048329;28;20078;-10
2023/01/08 03:49:31;;;;;;;0.30;0.20;;;17.20;68.00;;;;;;5049729;28;20579;-13
2023/01/08 03:51:56;;;;;;;0.30;0.20;;;17.20;68.00;;;;;;5065076;28;20405;-15
2023/01/08 03:54:23;;;;;;;0.15;0.13;;;17.30;68.00;;;;;;5067014;28;20056;-27
2023/01/08 03:56:49;;;;;;;0.17;0.13;;;17.20;68.00;;;;;;5068809;28;20493;-13
2023/01/08 03:59:15;;;;;;;0.10;0.10;;;17.20;68.10;;;;;;5065351;28;20093;-35
2023/01/08 04:01:40;;;;;;;0.20;0.20;;;17.20;68.10;;;;;;5066605;28;20055;-18
2023/01/08 04:04:06;;;;;;;0.43;0.20;;;17.30;67.80;;;;;;5065978;28;20045;-18
2023/01/08 04:06:32;;;;;;;0.40;0.38;;;17.20;67.90;;;;;;5066978;28;20048;-10
2023/01/08 04:08:57;;;;;;;0.20;0.10;;;17.20;68.00;;;;;;5065606;28;20522;-10
2023/01/08 04:11:23;;;;;;;0.40;0.20;;;17.20;67.80;;;;;;5071455;28;20037;-10
2023/01/08 04:13:48;;;;;;;0.10;0.10;;;17.20;68.00;;;;;;5069267;28;20047;-13
2023/01/08 04:16:14;;;;;;;0.52;0.50;;;17.20;67.90;;;;;;5071425;28;20444;-13
2023/01/08 04:18:39;;;;;;;0.20;0.20;;;17.20;68.00;;;;;;5069698;28;20033;-10
2023/01/08 04:21:05;;;;;;;0.20;0.10;;;17.20;68.10;;;;;;5069907;28;20083;-11
2023/01/08 04:23:30;;;;;;;0.13;0.10;;;17.10;68.10;;;;;;5068859;28;20037;-14
2023/01/08 04:25:56;;;;;;;0.20;0.20;;;17.10;68.00;;;;;;5069152;28;20553;-11
2023/01/08 04:28:23;;;;;;;0.45;0.10;;;17.10;68.20;;;;;;5069147;28;20071;-15
2023/01/08 04:30:49;;;;;;;0.30;0.20;;;17.20;68.10;;;;;;5069724;28;20052;-10
2023/01/08 04:33:14;;;;;;;0.20;0.10;;;17.10;68.10;;;;;;5071323;28;20510;-10
2023/01/08 04:35:40;;;;;;;0.10;0.10;;;17.00;68.30;;;;;;5069921;28;20481;-10
2023/01/08 04:38:05;;;;;;;0.13;0.10;;;17.10;68.10;;;;;;5072235;28;20043;-10
2023/01/08 04:40:32;;;;;;;0.20;0.20;;;17.10;68.10;;;;;;5070148;28;20040;-12
2023/01/08 04:42:57;;;;;;;0.20;0.10;;;17.20;68.00;;;;;;5076484;28;20118;-10
2023/01/08 04:45:23;;;;;;;0.38;0.20;;;17.20;68.00;;;;;;5082976;28;20087;-23
2023/01/08 04:47:55;;;;;;;0.20;0.10;;;17.20;67.80;;;;;;5080612;28;20521;-10
2023/01/08 04:50:20;;;;;;;0.10;0.10;;;17.20;67.90;;;;;;5074900;28;20033;-10
2023/01/08 04:52:46;;;;;;;0.15;0.15;;;17.10;67.90;;;;;;5077781;28;20412;-13
2023/01/08 04:55:12;;;;;;;0.20;0.20;;;17.20;67.90;;;;;;5082675;28;20048;-22
2023/01/08 04:57:37;;;;;;;0.08;0.08;;;17.20;68.00;;;;;;5080199;28;20437;-14
2023/01/08 05:00:03;;;;;;;0.30;0.30;;;17.10;68.00;;;;;;5078607;28;20075;-13
2023/01/08 05:02:29;;;;;;;0.88;0.20;;;17.10;68.10;;;;;;5084276;28;20052;-10
2023/01/08 05:04:54;;;;;;;0.22;0.13;;;17.20;68.60;;;;;;5078757;28;20136;-11
2023/01/08 05:07:20;;;;;;;0.17;0.10;;;17.20;67.90;;;;;;5082241;28;20048;-10
2023/01/08 05:09:45;;;;;;;0.10;0.10;;;17.10;67.80;;;;;;5079457;28;20513;-14
2023/01/08 05:12:11;;;;;;;0.10;0.10;;;17.10;68.00;;;;;;5078984;28;20060;-14
2023/01/08 05:14:36;;;;;;;0.20;0.10;;;17.10;68.20;;;;;;5082535;28;20181;-10
2023/01/08 05:17:02;;;;;;;0.45;0.20;;;17.10;68.10;;;;;;5077523;28;20083;-20
2023/01/08 05:19:28;;;;;;;0.15;0.15;;;17.10;68.10;;;;;;5080320;28;20021;-12
2023/01/08 05:21:53;;;;;;;0.20;0.17;;;17.20;67.90;;;;;;5079962;28;20186;-18
2023/01/08 05:24:19;;;;;;;0.40;0.20;;;17.10;68.10;;;;;;5076585;28;20528;-10
2023/01/08 05:26:44;;;;;;;0.20;0.10;;;17.10;68.20;;;;;;5079871;28;20040;-15
2023/01/08 05:29:10;;;;;;;0.22;0.22;;;17.10;68.00;;;;;;5081404;28;20441;-15
2023/01/08 05:31:35;;;;;;;0.30;0.20;;;17.10;68.10;;;;;;5083777;28;20055;-11
2023/01/08 05:34:01;;;;;;;0.20;0.10;;;17.10;68.00;;;;;;5077800;28;20058;-11
2023/01/08 05:36:27;;;;;;;0.10;0.10;;;17.00;68.20;;;;;;5085653;28;20521;-10
2023/01/08 05:38:52;;;;;;;0.22;0.20;;;17.00;68.20;;;;;;5079201;28;20051;-10
2023/01/08 05:41:18;;;;;;;0.20;0.20;;;17.00;68.10;;;;;;5080135;28;20044;-11
2023/01/08 05:43:43;;;;;;;0.10;0.10;;;17.10;67.80;;;;;;5076473;28;20044;-9
2023/01/08 05:46:09;;;;;;;0.17;0.17;;;17.10;67.70;;;;;;5078232;28;20044;-11
2023/01/08 05:48:36;;;;;;;0.10;0.10;;;17.10;67.60;;;;;;5081985;28;20501;-10
2023/01/08 05:51:02;;;;;;;0.20;0.20;;;17.10;68.00;;;;;;5079367;28;20139;-20
2023/01/08 05:53:27;;;;;;;0.30;0.20;;;17.10;68.00;;;;;;5079753;28;20090;-10
2023/01/08 05:56:01;;;;;;;0.20;0.20;;;17.00;68.20;;;;;;5078069;28;20590;-11
2023/01/08 05:58:26;;;;;;;0.20;0.20;;;17.00;68.20;;;;;;5082705;28;20521;-10
2023/01/08 06:00:52;;;;;;;0.32;0.10;;;17.10;68.00;;;;;;5076568;28;20548;-14
2023/01/08 06:03:21;;;;;;;0.22;0.15;;;17.00;68.10;;;;;;5078078;28;20429;-15
2023/01/08 06:05:47;;;;;;;0.30;0.13;;;17.10;67.70;;;;;;5077290;28;20035;-12
2023/01/08 06:08:12;;;;;;;0.10;0.10;;;17.10;68.00;;;;;;5077714;28;20086;-15
2023/01/08 06:10:38;;;;;;;0.15;0.13;;;17.00;67.90;;;;;;5080648;28;20056;-21
2023/01/08 06:13:07;;;;;;;0.17;0.10;;;17.10;68.20;;;;;;5078029;28;20036;-10
2023/01/08 06:15:33;;;;;;;0.22;0.20;;;17.00;68.20;;;;;;5077471;28;20032;-15
2023/01/08 06:18:02;;;;;;;0.10;0.10;;;16.90;68.40;;;;;;5076550;28;20063;-10
2023/01/08 06:20:27;;;;;;;0.10;0.10;;;16.90;68.30;;;;;;5080601;28;20102;-18
2023/01/08 06:22:53;;;;;;;0.10;0.08;;;16.90;68.30;;;;;;5076698;28;20406;-10
2023/01/08 06:25:18;;;;;;;0.20;0.10;;;16.90;68.40;;;;;;5081578;28;20075;-11
2023/01/08 06:27:44;;;;;;;0.30;0.20;;;17.00;68.40;;;;;;5082179;28;20090;-23
2023/01/08 06:30:10;;;;;;;0.20;0.10;;;17.00;68.20;;;;;;5076116;28;20044;-10
2023/01/08 06:32:35;;;;;;;0.25;0.10;;;16.90;68.20;;;;;;5078625;28;20039;-10
2023/01/08 06:35:01;;;;;;;0.32;0.10;;;17.00;68.30;;;;;;5078523;28;20525;-16
2023/01/08 06:37:26;;;;;;;0.50;0.10;;;17.00;68.10;;;;;;5076159;28;20036;-11
2023/01/08 06:39:52;;;;;;;0.20;0.10;;;16.90;68.00;;;;;;5078836;28;20127;-10
2023/01/08 06:42:17;;;;;;;0.10;0.10;;;16.90;68.30;;;;;;5079512;28;20521;-11
2023/01/08 06:44:43;;;;;;;0.20;0.10;;;17.00;68.00;;;;;;5073133;28;20036;-27
2023/01/08 06:47:09;;;;;;;0.20;0.13;;;17.00;67.80;;;;;;5065848;28;20127;-15
2023/01/08 06:49:34;;;;;;;0.40;0.20;;;16.90;68.10;;;;;;5061680;28;20037;-10
2023/01/08 06:52:00;;;;;;;0.70;0.28;;;16.90;68.10;;;;;;5063990;28;20059;-10
2023/01/08 06:54:25;;;;;;;0.20;0.10;;;17.00;67.90;;;;;;5058676;28;20067;-11
2023/01/08 06:56:51;;;;;;;0.10;0.10;;;16.90;68.10;;;;;;5055374;28;20036;-13
2023/01/08 06:59:16;;;;;;;0.35;0.10;;;17.00;68.00;;;;;;5064042;28;20069;-10
2023/01/08 07:01:42;;;;;;;0.50;0.22;;;17.00;68.20;;;;;;5060893;28;20040;-14
2023/01/08 07:04:08;;;;;;;0.30;0.10;;;16.90;68.40;;;;;;5061050;28;20499;-15
2023/01/08 07:06:33;;;;;;;0.20;0.10;;;16.90;68.20;;;;;;5059135;28;20089;-13
2023/01/08 07:08:59;;;;;;;0.17;0.17;;;16.90;68.00;;;;;;5062350;28;20045;-10
2023/01/08 07:11:24;;;;;;;0.20;0.20;;;16.90;67.90;;;;;;5065801;28;20135;-11
2023/01/08 07:13:50;;;;;;;0.35;0.30;;;16.90;68.30;;;;;;5064401;28;20448;-11
2023/01/08 07:16:15;;;;;;;0.20;0.20;;;16.90;68.00;;;;;;5050904;28;20107;-19
2023/01/08 07:18:41;;;;;;;0.10;0.08;;;16.90;68.10;;;;;;5042034;28;20029;-9
2023/01/08 07:21:07;;;;;;;0.10;0.10;;;16.90;68.20;;;;;;5061539;28;20402;-12
2023/01/08 07:23:33;;;;;;;0.20;0.20;;;17.00;68.10;;;;;;5044437;28;20090;-11
2023/01/08 07:26:00;;;;;;;0.28;0.20;;;16.90;68.00;;;;;;5059576;28;20040;-13
2023/01/08 07:28:26;;;;;;;0.60;0.20;;;16.80;68.20;;;;;;5064855;28;20139;-12
2023/01/08 07:30:51;;;;;;;0.20;0.10;;;16.90;68.00;;;;;;5060233;28;20152;-12
2023/01/08 07:33:17;;;;;;;0.28;0.20;;;16.90;68.00;;;;;;5065304;28;20397;-10
2023/01/08 07:35:43;;;;;;;0.20;0.20;;;17.00;67.90;;;;;;5061370;28;20043;-21
2023/01/08 07:38:08;;;;;;;0.63;0.20;;;16.90;68.10;;;;;;5064222;28;20564;-10
2023/01/08 07:40:34;;;;;;;0.10;0.10;;;16.80;68.30;;;;;;5065472;28;20524;-17
2023/01/08 07:43:01;;;;;;;0.10;0.10;;;16.80;68.40;;;;;;5062287;28;20552;-10
2023/01/08 07:45:27;;;;;;;0.17;0.10;;;16.90;68.10;;;;;;5064829;28;20048;-10
2023/01/08 07:47:52;;;;;;;0.20;0.10;;;16.80;68.20;;;;;;5061118;28;20075;-11
2023/01/08 07:50:18;;;;;;;0.20;0.20;;;16.90;68.30;;;;;;5059953;28;20768;-11
2023/01/08 07:52:43;;;;;;;0.43;0.20;;;16.90;68.10;;;;;;5064507;28;20045;-15
2023/01/08 07:55:09;;;;;;;0.20;0.10;;;16.90;68.10;;;;;;5060029;28;20076;-12
2023/01/08 07:57:34;;;;;;;0.32;0.20;;;16.80;68.30;;;;;;5062274;28;20048;-14
2023/01/08 08:00:00;;;;;;;0.20;0.20;;;16.80;68.60;;;;;;5063389;28;20085;-10
2023/01/08 08:02:26;;;;;;;0.30;0.17;;;16.80;68.40;;;;;;5046061;28;20529;-10
2023/01/08 08:04:51;;;;;;;0.20;0.10;;;16.80;68.40;;;;;;5057700;28;20093;-11
2023/01/08 08:07:17;;;;;;;0.57;0.20;;;16.80;68.40;;;;;;5060576;28;20049;-14
2023/01/08 08:09:42;;;;;;;0.22;0.20;;;16.80;68.10;;;;;;5061865;28;20032;-10
2023/01/08 08:12:08;;;;;;;0.20;0.20;;;16.90;67.90;;;;;;5062468;28;20527;-11
2023/01/08 08:14:33;;;;;;;0.20;0.20;;;16.80;68.10;;;;;;5045840;28;20043;-10
2023/01/08 08:16:59;;;;;;;0.28;0.20;;;16.80;68.20;;;;;;5062751;28;20041;-12
2023/01/08 08:19:25;;;;;;;0.30;0.20;;;16.90;68.20;;;;;;5065006;28;20044;-26
2023/01/08 08:21:51;;;;;;;0.20;0.20;;;16.80;68.40;;;;;;5061178;28;20041;-15
2023/01/08 08:24:16;;;;;;;0.15;0.13;;;16.80;69.20;;;;;;5044178;28;20114;-17
2023/01/08 08:26:42;;;;;;;0.50;0.30;;;16.80;68.50;;;;;;5064715;28;20044;-10
2023/01/08 08:29:07;;;;;;;0.28;0.13;;;16.80;68.30;;;;;;5061692;28;20041;-14
2023/01/08 08:31:33;;;;;;;0.10;0.10;;;16.80;68.20;;;;;;5059766;28;20557;-16
2023/01/08 08:33:58;;;;;;;0.35;0.20;;;16.80;68.40;;;;;;5061319;28;20052;-12
2023/01/08 08:36:28;;;;;;;0.10;0.10;;;16.70;68.50;;;;;;5061931;28;20041;-11
2023/01/08 08:38:53;;;;;;;0.25;0.20;;;16.70;68.40;;;;;;5062222;28;20123;-10
2023/01/08 08:41:19;;;;;;;0.20;0.10;;;16.80;68.40;;;;;;5063971;28;20118;-10
2023/01/08 08:43:45;;;;;;;0.10;0.10;;;16.80;68.40;;;;;;5062577;28;20664;-10
2023/01/08 08:46:10;;;;;;;0.38;0.30;;;16.80;68.40;;;;;;5078753;28;20036;-10
2023/01/08 08:48:36;;;;;;;0.10;0.10;;;16.80;68.40;;;;;;5074884;28;20051;-9
2023/01/08 08:51:02;;;;;;;0.47;0.20;;;16.70;68.40;;;;;;5077193;28;20102;-10
2023/01/08 08:53:28;;;;;;;0.13;0.10;;;16.70;68.40;;;;;;5059279;28;20040;-9
2023/01/08 08:55:53;;;;;;;0.10;0.10;;;16.70;68.50;;;;;;5076759;28;20032;-10
2023/01/08 08:58:19;;;;;;;0.60;0.10;;;16.70;68.50;;;;;;5081117;28;20456;-17
2023/01/08 09:00:44;;;;;;;0.10;0.10;;;16.70;68.40;;;;;;5078362;28;20063;-15
2023/01/08 09:03:13;;;;;;;0.25;0.13;;;16.70;68.40;;;;;;5080910;28;20064;-10
2023/01/08 09:05:39;;;;;;;0.40;0.30;;;16.70;68.40;;;;;;5080970;28;20198;-11
2023/01/08 09:08:05;;;;;;;0.40;0.20;;;16.70;68.40;;;;;;5081856;28;20231;-10
2023/01/08 09:10:30;;;;;;;0.47;0.20;;;16.70;68.40;;;;;;5079057;28;20382;-10
2023/01/08 09:12:56;;;;;;;0.40;0.20;;;16.80;68.40;;;;;;5077803;28;20055;-10
2023/01/08 09:15:21;;;;;;;0.30;0.20;;;16.80;68.30;;;;;;5078041;28;20091;-10
2023/01/08 09:17:56;;;;;;;0.30;0.20;;;16.70;68.30;;;;;;5079302;28;20060;-11
2023/01/08 09:20:23;;;;;;;0.30;0.10;;;16.70;68.40;;;;;;5072297;28;20056;-11
2023/01/08 09:22:48;;;;;;;0.55;0.32;;;16.70;68.40;;;;;;5068258;28;20063;-10
2023/01/08 09:25:14;;;;;;;0.38;0.30;;;16.70;68.40;;;;;;5077794;28;20124;-13
2023/01/08 09:27:40;;;;;;;0.30;0.30;;;16.60;68.80;;;;;;5082044;28;20044;-13
2023/01/08 09:30:06;;;;;;;0.40;0.30;;;16.60;69.00;;;;;;5079149;28;20089;-10
2023/01/08 09:32:31;;;;;;;0.30;0.20;;;16.60;69.10;;;;;;5078051;28;20044;-10
2023/01/08 09:34:57;;;;;;;0.20;0.20;;;16.60;68.80;;;;;;5079602;28;20039;-10
2023/01/08 09:37:23;;;;;;;0.10;0.10;;;16.50;68.80;;;;;;5080025;28;20516;-10
2023/01/08 09:39:49;;;;;;;0.20;0.20;;;16.50;68.70;;;;;;5079977;28;20032;-10
2023/01/08 09:42:15;;;;;;;0.50;0.10;;;16.50;68.90;;;;;;5076788;28;20064;-10
2023/01/08 09:44:41;;;;;;;0.30;0.20;;;16.60;68.80;;;;;;5079307;28;20117;-10
2023/01/08 09:47:36;;;;;;;0.10;0.10;;;16.60;68.80;;;;;;5078855;28;20047;-11
2023/01/08 09:50:03;;;;;;;;;;;16.60;68.80;;;;;;5079032;28;20105;-10
2023/01/08 09:52:29;;;;;;;0.30;0.30;;;16.60;69.00;;;;;;5082424;28;19920;-11
2023/01/08 09:54:54;;;;;;;0.17;0.15;;;16.70;68.80;;;;;;5077156;28;20053;-21
2023/01/08 09:57:20;;;;;;;0.20;0.20;;;16.70;68.90;;;;;;5076569;28;20048;-21
2023/01/08 09:59:47;;;;;;;0.50;0.20;;;16.70;68.80;;;;;;5076397;28;20147;-16
2023/01/08 10:02:16;;;;;;;0.22;0.20;;;16.80;69.40;;;;;;5077136;28;20051;-10
2023/01/08 10:04:42;;;;;;;0.40;0.20;;;16.70;68.60;;;;;;5078290;28;20032;-10
2023/01/08 10:07:20;;;;;;;0.20;0.20;;;16.70;68.90;;;;;;5064142;28;20040;-12
2023/01/08 10:09:46;;;;;;;0.20;0.10;;;16.70;68.90;;;;;;5072794;28;20406;-10
2023/01/08 10:12:11;;;;;;;0.20;0.13;;;16.70;69.00;;;;;;5057184;28;20513;-10
2023/01/08 10:14:38;;;;;;;0.40;0.20;;;16.60;68.90;;;;;;5073066;28;20028;-10
2023/01/08 10:17:38;;;;;;;0.20;0.20;;;16.60;69.70;;;;;;5061487;28;20090;-10
2023/01/08 10:20:21;;;;;;;0.40;0.30;;;16.70;69.00;;;;;;5073940;28;20143;-12
2023/01/08 10:22:46;;;;;;;0.20;0.20;;;16.70;68.80;;;;;;5080116;28;20047;-10
2023/01/08 10:25:15;;;;;;;0.22;0.10;;;16.70;68.80;;;;;;5073875;28;20048;-15
2023/01/08 10:27:51;;;;;;;0.30;0.30;;;16.70;68.70;;;;;;5081538;28;20505;-14
2023/01/08 10:30:19;;;;;;;0.32;0.25;;;16.80;68.70;;;;;;5074488;28;20480;-10
2023/01/08 10:32:51;;;;;;;0.50;0.28;;;16.80;68.60;;;;;;5076261;28;20041;-11
2023/01/08 10:35:19;;;;;;;0.20;0.20;;;16.80;68.50;;;;;;5057853;28;20055;-10
2023/01/08 10:37:46;;;;;;;0.30;0.15;;;16.80;68.60;;;;;;5077887;28;20152;-10
2023/01/08 10:40:36;;;;;;;0.20;0.17;;;16.90;68.40;;;;;;5076390;28;20123;-24
2023/01/08 10:43:12;;;;;;;0.20;0.15;;;16.90;68.40;;;;;;5055437;28;20497;-13
2023/01/08 10:45:39;;;;;;;0.20;0.20;;;16.80;68.30;;;;;;5049336;28;20060;-11
2023/01/08 10:48:05;;;;;;;0.22;0.20;;;16.80;68.40;;;;;;5055351;28;20051;-10
2023/01/08 10:50:32;;;;;;;0.38;0.30;;;16.90;68.30;;;;;;5031254;28;20540;-17
2023/01/08 10:53:02;;;;;;;0.15;0.10;;;16.90;68.20;;;;;;5041505;28;20109;-19
2023/01/08 10:55:36;;;;;;;0.22;0.20;;;16.90;68.30;;;;;;5050936;28;20048;-11
2023/01/08 10:58:13;;;;;;;0.28;0.10;;;16.90;68.40;;;;;;5045758;28;20105;-23
2023/01/08 11:00:38;;;;;;;0.35;0.35;;;16.90;68.30;;;;;;5063325;28;20084;-10
2023/01/08 11:03:41;;;;;;;0.22;0.15;;;16.90;68.20;;;;;;5057810;28;20040;-15
2023/01/08 11:06:11;;;;;;;0.20;0.20;;;16.90;68.30;;;;;;5012862;28;20135;-9
2023/01/08 11:08:36;;;;;;;0.40;0.20;;;16.90;68.30;;;;;;5061479;28;20095;-11
2023/01/08 11:11:02;;;;;;;0.17;0.03;;;16.90;68.30;;;;;;5060091;28;20054;-15
2023/01/08 11:13:28;;;;;;;0.20;0.15;;;16.90;68.20;;;;;;5064955;28;20036;-15
2023/01/08 11:16:04;;;;;;;0.50;0.30;;;16.90;68.10;;;;;;5061593;28;20045;-21
2023/01/08 11:18:29;;;;;;;0.13;0.13;;;16.90;68.20;;;;;;5056896;28;20040;-9
2023/01/08 11:21:06;;;;;;;0.47;0.30;;;16.90;68.10;;;;;;5064491;28;20059;-15
2023/01/08 11:23:32;;;;;;;0.50;0.15;;;16.90;68.10;;;;;;5061661;28;20052;-9
2023/01/08 11:26:02;;;;;;;0.40;0.28;;;16.90;68.10;;;;;;5059217;28;20429;-10
2023/01/08 11:28:52;;;;;;;0.35;0.28;;;16.90;68.20;;;;;;5075122;28;20068;-13
2023/01/08 11:31:40;;;;;;;0.52;0.20;;;16.90;68.10;;;;;;5042984;28;20075;-10
2023/01/08 11:34:18;;;;;;;0.50;0.20;;;16.90;68.10;;;;;;5041965;28;20067;-10
2023/01/08 11:36:53;;;;;;;0.30;0.20;;;17.00;67.90;;;;;;5045136;28;20510;-10
2023/01/08 11:39:19;;;;;;;0.28;0.20;;;16.90;67.90;;;;;;5025145;28;20509;-10
2023/01/08 11:42:02;;;;;;;0.30;0.20;;;17.00;67.90;;;;;;5064490;28;20131;-10
2023/01/08 11:44:49;;;;;;;0.20;0.20;;;17.00;68.00;;;;;;5057080;28;20604;-10
2023/01/08 11:47:30;;;;;;;0.38;0.10;;;16.90;68.00;;;;;;5076026;28;20048;-21
2023/01/08 11:50:34;;;;;;;0.20;0.10;;;16.90;68.00;;;;;;5078538;28;20045;-15
2023/01/08 11:53:13;;;;;;;0.73;0.22;;;16.90;68.00;;;;;;5075306;28;20062;-22
2023/01/08 11:56:17;;;;;;;0.20;0.20;;;16.90;68.10;;;;;;5056917;28;20048;-13
2023/01/08 11:58:52;;;;;;;0.20;0.10;;;16.90;68.20;;;;;;5052401;28;20043;-20
2023/01/08 12:01:34;;;;;;;0.10;0.10;;;16.90;68.10;;;;;;5075752;28;20496;-31
2023/01/08 12:04:35;;;;;;;0.28;0.20;;;16.90;68.00;;;;;;5059770;28;20089;-12
2023/01/08 12:07:48;;;;;;;0.40;0.20;;;17.00;68.80;;;;;;5049235;28;20048;-21
2023/01/08 12:10:24;;;;;;;0.32;0.13;;;17.00;67.90;;;;;;5069314;28;20119;-14
2023/01/08 12:13:04;;;;;;;0.63;0.20;;;17.00;68.00;;;;;;5077202;28;20111;-10
2023/01/08 12:15:51;;;;;;;0.60;0.20;;;16.90;68.10;;;;;;5078570;28;20111;-10
2023/01/08 12:18:35;;;;;;;0.20;0.20;;;17.00;67.90;;;;;;5073340;28;20485;-17
2023/01/08 12:21:22;;;;;;;0.20;0.10;;;17.00;67.80;;;;;;5079197;28;20116;-20
2023/01/08 12:23:50;;;;;;;0.52;0.22;;;17.00;67.90;;;;;;5064382;28;20072;-10
2023/01/08 12:26:18;;;;;;;0.13;0.13;;;17.00;68.80;;;;;;5074818;28;20520;-13
2023/01/08 12:28:53;;;;;;;0.20;0.20;;;17.00;68.80;;;;;;5082367;28;20044;-10
2023/01/08 12:31:24;;;;;;;;;;;17.00;68.00;;;;;;5061309;28;20074;-10
2023/01/08 12:34:10;;;;;;;0.20;0.20;;;17.00;68.00;;;;;;5066727;28;19932;-14
2023/01/08 12:36:39;;;;;;;0.35;0.28;;;17.00;67.90;;;;;;5054429;28;20052;-17
2023/01/08 12:39:12;;;;;;;0.30;0.30;;;17.00;67.90;;;;;;5059175;28;20588;-10
2023/01/08 12:41:38;;;;;;;0.17;0.17;;;17.00;67.80;;;;;;5063468;28;20049;-15
2023/01/08 12:44:08;;;;;;;0.22;0.10;;;17.00;68.00;;;;;;5079025;28;20106;-16
2023/01/08 12:46:35;;;;;;;0.30;0.28;;;17.00;67.80;;;;;;5048426;28;20645;-11
2023/01/08 12:49:01;;;;;;;0.22;0.22;;;17.00;67.80;;;;;;5055577;28;20045;-13
2023/01/08 12:51:48;;;;;;;0.30;0.17;;;17.00;67.80;;;;;;5042614;28;20115;-10
2023/01/08 12:54:38;;;;;;;0.60;0.45;;;17.00;67.90;;;;;;5050648;28;20041;-12
2023/01/08 12:57:25;;;;;;;0.20;0.17;;;17.00;67.90;;;;;;5052740;28;20091;-16